sensor_id;sensor_type;location;lat;lon;timestamp;pressure;altitude;pressure_sealevel;temperature;humidity
15678;BME280;7939;50.814;6.368;2023-07-30T00:01:23;99352.78;;;22.34;63.23
15678;BME280;7939;50.814;6.368;2023-07-30T00:03:50;99365.78;;;22.34;63.04
15678;BME280;7939;50.814;6.368;2023-07-30T00:06:18;99353.72;;;22.33;63.03
15678;BME280;7939;50.814;6.368;2023-07-30T00:08:44;99356.41;;;22.31;63.10
15678;BME280;7939;50.814;6.368;2023-07-30T00:11:11;99359.91;;;22.30;63.02
15678;BME280;7939;50.814;6.368;2023-07-30T00:13:38;99356.47;;;22.30;62.71
15678;BME280;7939;50.814;6.368;2023-07-30T00:16:04;99354.78;;;22.29;62.97
15678;BME280;7939;50.814;6.368;2023-07-30T00:18:31;99356.66;;;22.27;62.80
15678;BME280;7939;50.814;6.368;2023-07-30T00:20:58;99356.75;;;22.25;63.04
15678;BME280;7939;50.814;6.368;2023-07-30T00:23:26;99355.88;;;22.25;62.90
15678;BME280;7939;50.814;6.368;2023-07-30T00:25:53;99353.34;;;22.23;62.85
15678;BME280;7939;50.814;6.368;2023-07-30T00:28:19;99355.97;;;22.23;62.90
15678;BME280;7939;50.814;6.368;2023-07-30T00:30:46;99350.84;;;22.22;62.73
15678;BME280;7939;50.814;6.368;2023-07-30T00:33:13;99364.78;;;22.21;62.68
15678;BME280;7939;50.814;6.368;2023-07-30T00:35:39;99359.69;;;22.19;62.88
15678;BME280;7939;50.814;6.368;2023-07-30T00:38:06;99368.38;;;22.18;62.78
15678;BME280;7939;50.814;6.368;2023-07-30T00:40:39;99370.16;;;22.18;62.96
15678;BME280;7939;50.814;6.368;2023-07-30T00:43:06;99365.78;;;22.18;62.72
15678;BME280;7939;50.814;6.368;2023-07-30T00:45:32;99373.78;;;22.15;62.66
15678;BME280;7939;50.814;6.368;2023-07-30T00:48:00;99379.81;;;22.16;62.57
15678;BME280;7939;50.814;6.368;2023-07-30T00:50:27;99379.06;;;22.14;62.66
15678;BME280;7939;50.814;6.368;2023-07-30T00:52:55;99385.19;;;22.13;62.75
15678;BME280;7939;50.814;6.368;2023-07-30T00:55:21;99381.72;;;22.12;62.72
15678;BME280;7939;50.814;6.368;2023-07-30T00:57:50;99387.84;;;22.11;62.48
15678;BME280;7939;50.814;6.368;2023-07-30T01:00:17;99387.84;;;22.11;62.58
15678;BME280;7939;50.814;6.368;2023-07-30T01:02:44;99391.44;;;22.08;62.55
15678;BME280;7939;50.814;6.368;2023-07-30T01:05:11;99392.38;;;22.07;62.66
15678;BME280;7939;50.814;6.368;2023-07-30T01:07:38;99388.94;;;22.07;62.11
15678;BME280;7939;50.814;6.368;2023-07-30T01:10:05;99388.16;;;22.05;62.25
15678;BME280;7939;50.814;6.368;2023-07-30T01:12:34;99389.00;;;22.05;62.19
15678;BME280;7939;50.814;6.368;2023-07-30T01:15:04;99389.91;;;22.04;62.07
15678;BME280;7939;50.814;6.368;2023-07-30T01:17:31;99384.81;;;22.03;62.05
15678;BME280;7939;50.814;6.368;2023-07-30T01:19:58;99388.34;;;22.02;61.95
15678;BME280;7939;50.814;6.368;2023-07-30T01:22:26;99391.88;;;22.01;62.10
15678;BME280;7939;50.814;6.368;2023-07-30T01:24:53;99390.16;;;22.00;61.67
15678;BME280;7939;50.814;6.368;2023-07-30T01:27:24;99393.69;;;21.99;61.74
15678;BME280;7939;50.814;6.368;2023-07-30T01:29:53;99384.13;;;21.99;61.98
15678;BME280;7939;50.814;6.368;2023-07-30T01:32:25;99383.28;;;21.99;61.74
15678;BME280;7939;50.814;6.368;2023-07-30T01:34:52;99391.09;;;21.99;61.66
15678;BME280;7939;50.814;6.368;2023-07-30T01:37:20;99392.84;;;21.98;61.80
15678;BME280;7939;50.814;6.368;2023-07-30T01:39:49;99394.63;;;21.98;61.39
15678;BME280;7939;50.814;6.368;2023-07-30T01:42:16;99398.97;;;21.97;61.73
15678;BME280;7939;50.814;6.368;2023-07-30T01:44:43;99404.28;;;21.96;61.46
15678;BME280;7939;50.814;6.368;2023-07-30T01:47:10;99392.19;;;21.95;61.65
15678;BME280;7939;50.814;6.368;2023-07-30T01:49:36;99390.50;;;21.94;61.50
15678;BME280;7939;50.814;6.368;2023-07-30T01:52:03;99394.78;;;21.95;61.33
15678;BME280;7939;50.814;6.368;2023-07-30T01:54:30;99406.19;;;21.92;61.38
15678;BME280;7939;50.814;6.368;2023-07-30T01:56:59;99401.91;;;21.91;61.46
15678;BME280;7939;50.814;6.368;2023-07-30T01:59:26;99405.44;;;21.90;61.33
15678;BME280;7939;50.814;6.368;2023-07-30T02:01:53;99408.03;;;21.90;61.46
15678;BME280;7939;50.814;6.368;2023-07-30T02:04:19;99402.06;;;21.88;61.26
15678;BME280;7939;50.814;6.368;2023-07-30T02:06:46;99405.53;;;21.89;61.17
15678;BME280;7939;50.814;6.368;2023-07-30T02:09:13;99392.50;;;21.89;61.23
15678;BME280;7939;50.814;6.368;2023-07-30T02:11:39;99399.53;;;21.87;60.91
15678;BME280;7939;50.814;6.368;2023-07-30T02:14:08;99401.28;;;21.86;60.83
15678;BME280;7939;50.814;6.368;2023-07-30T02:16:35;99391.81;;;21.85;60.89
15678;BME280;7939;50.814;6.368;2023-07-30T02:19:02;99398.69;;;21.86;60.87
15678;BME280;7939;50.814;6.368;2023-07-30T02:21:28;99393.59;;;21.85;61.15
15678;BME280;7939;50.814;6.368;2023-07-30T02:23:58;99384.00;;;21.85;60.89
15678;BME280;7939;50.814;6.368;2023-07-30T02:26:25;99396.19;;;21.85;60.94
15678;BME280;7939;50.814;6.368;2023-07-30T02:28:51;99388.38;;;21.85;60.75
15678;BME280;7939;50.814;6.368;2023-07-30T02:31:19;99395.34;;;21.84;60.96
15678;BME280;7939;50.814;6.368;2023-07-30T02:33:46;99398.88;;;21.83;61.05
15678;BME280;7939;50.814;6.368;2023-07-30T02:36:13;99399.72;;;21.84;61.01
15678;BME280;7939;50.814;6.368;2023-07-30T02:38:39;99402.41;;;21.82;61.08
15678;BME280;7939;50.814;6.368;2023-07-30T02:41:06;99402.41;;;21.82;60.93
15678;BME280;7939;50.814;6.368;2023-07-30T02:43:32;99408.50;;;21.81;61.24
15678;BME280;7939;50.814;6.368;2023-07-30T02:45:59;99404.22;;;21.80;60.87
15678;BME280;7939;50.814;6.368;2023-07-30T02:48:27;99404.31;;;21.78;60.98
15678;BME280;7939;50.814;6.368;2023-07-30T02:50:53;99408.84;;;21.75;60.58
15678;BME280;7939;50.814;6.368;2023-07-30T02:53:20;99402.84;;;21.73;60.71
15678;BME280;7939;50.814;6.368;2023-07-30T02:55:46;99406.38;;;21.72;60.71
15678;BME280;7939;50.814;6.368;2023-07-30T02:58:13;99412.50;;;21.71;60.67
15678;BME280;7939;50.814;6.368;2023-07-30T03:00:40;99415.94;;;21.71;60.54
15678;BME280;7939;50.814;6.368;2023-07-30T03:03:06;99418.56;;;21.71;60.60
15678;BME280;7939;50.814;6.368;2023-07-30T03:05:34;99413.34;;;21.71;60.38
15678;BME280;7939;50.814;6.368;2023-07-30T03:08:01;99418.56;;;21.71;60.53
15678;BME280;7939;50.814;6.368;2023-07-30T03:10:27;99412.50;;;21.71;60.33
15678;BME280;7939;50.814;6.368;2023-07-30T03:12:54;99412.50;;;21.71;60.41
15678;BME280;7939;50.814;6.368;2023-07-30T03:15:21;99422.00;;;21.72;60.32
15678;BME280;7939;50.814;6.368;2023-07-30T03:17:47;99422.06;;;21.70;60.36
15678;BME280;7939;50.814;6.368;2023-07-30T03:20:14;99423.91;;;21.68;60.08
15678;BME280;7939;50.814;6.368;2023-07-30T03:22:42;99438.66;;;21.68;60.07
15678;BME280;7939;50.814;6.368;2023-07-30T03:25:08;99436.06;;;21.68;59.96
15678;BME280;7939;50.814;6.368;2023-07-30T03:27:35;99437.81;;;21.67;60.07
15678;BME280;7939;50.814;6.368;2023-07-30T03:30:02;99437.00;;;21.67;59.99
15678;BME280;7939;50.814;6.368;2023-07-30T03:32:28;99440.59;;;21.64;59.76
15678;BME280;7939;50.814;6.368;2023-07-30T03:34:55;99450.16;;;21.64;59.70
15678;BME280;7939;50.814;6.368;2023-07-30T03:37:22;99453.69;;;21.63;59.06
15678;BME280;7939;50.814;6.368;2023-07-30T03:39:50;99459.03;;;21.60;58.95
15678;BME280;7939;50.814;6.368;2023-07-30T03:42:16;99459.03;;;21.60;59.28
15678;BME280;7939;50.814;6.368;2023-07-30T03:44:43;99459.03;;;21.60;59.32
15678;BME280;7939;50.814;6.368;2023-07-30T03:47:10;99456.50;;;21.58;59.07
15678;BME280;7939;50.814;6.368;2023-07-30T03:49:37;99458.19;;;21.59;59.03
15678;BME280;7939;50.814;6.368;2023-07-30T03:52:03;99454.75;;;21.59;59.21
15678;BME280;7939;50.814;6.368;2023-07-30T03:54:30;99450.38;;;21.59;59.20
15678;BME280;7939;50.814;6.368;2023-07-30T03:56:58;99449.63;;;21.57;58.77
15678;BME280;7939;50.814;6.368;2023-07-30T03:59:25;99454.06;;;21.55;58.63
15678;BME280;7939;50.814;6.368;2023-07-30T04:01:51;99448.94;;;21.53;59.09
15678;BME280;7939;50.814;6.368;2023-07-30T04:04:18;99455.81;;;21.54;58.88
15678;BME280;7939;50.814;6.368;2023-07-30T04:06:45;99451.53;;;21.53;58.93
15678;BME280;7939;50.814;6.368;2023-07-30T04:09:11;99459.34;;;21.53;58.77
15678;BME280;7939;50.814;6.368;2023-07-30T04:11:38;99455.97;;;21.51;58.90
15678;BME280;7939;50.814;6.368;2023-07-30T04:14:06;99462.84;;;21.52;58.88
15678;BME280;7939;50.814;6.368;2023-07-30T04:16:34;99463.88;;;21.50;58.60
15678;BME280;7939;50.814;6.368;2023-07-30T04:19:01;99456.06;;;21.50;58.85
15678;BME280;7939;50.814;6.368;2023-07-30T04:21:27;99465.53;;;21.51;58.85
15678;BME280;7939;50.814;6.368;2023-07-30T04:23:54;99471.66;;;21.50;58.95
15678;BME280;7939;50.814;6.368;2023-07-30T04:26:20;99466.38;;;21.51;58.91
15678;BME280;7939;50.814;6.368;2023-07-30T04:28:47;99472.56;;;21.49;58.75
15678;BME280;7939;50.814;6.368;2023-07-30T04:31:15;99473.47;;;21.48;58.66
15678;BME280;7939;50.814;6.368;2023-07-30T04:33:41;99469.13;;;21.48;58.78
15678;BME280;7939;50.814;6.368;2023-07-30T04:36:08;99470.97;;;21.46;58.78
15678;BME280;7939;50.814;6.368;2023-07-30T04:38:34;99471.03;;;21.45;58.19
15678;BME280;7939;50.814;6.368;2023-07-30T04:41:01;99478.06;;;21.43;58.29
15678;BME280;7939;50.814;6.368;2023-07-30T04:43:28;99475.63;;;21.40;58.30
15678;BME280;7939;50.814;6.368;2023-07-30T04:45:55;99472.09;;;21.41;58.46
15678;BME280;7939;50.814;6.368;2023-07-30T04:48:23;99478.97;;;21.42;58.58
15678;BME280;7939;50.814;6.368;2023-07-30T04:50:49;99475.53;;;21.41;58.50
15678;BME280;7939;50.814;6.368;2023-07-30T04:53:16;99477.22;;;21.42;58.64
15678;BME280;7939;50.814;6.368;2023-07-30T04:55:43;99477.38;;;21.39;58.60
15678;BME280;7939;50.814;6.368;2023-07-30T04:58:10;99466.06;;;21.40;58.20
15678;BME280;7939;50.814;6.368;2023-07-30T05:00:36;99478.22;;;21.40;58.59
15678;BME280;7939;50.814;6.368;2023-07-30T05:03:03;99467.81;;;21.40;58.76
15678;BME280;7939;50.814;6.368;2023-07-30T05:05:31;99486.88;;;21.40;58.85
15678;BME280;7939;50.814;6.368;2023-07-30T05:07:58;99478.34;;;21.37;58.70
15678;BME280;7939;50.814;6.368;2023-07-30T05:10:24;99475.72;;;21.38;58.74
15678;BME280;7939;50.814;6.368;2023-07-30T05:12:51;99472.31;;;21.36;58.70
15678;BME280;7939;50.814;6.368;2023-07-30T05:15:17;99472.31;;;21.36;58.62
15678;BME280;7939;50.814;6.368;2023-07-30T05:17:44;99470.56;;;21.37;58.43
15678;BME280;7939;50.814;6.368;2023-07-30T05:20:11;99467.97;;;21.37;58.78
15678;BME280;7939;50.814;6.368;2023-07-30T05:22:39;99478.34;;;21.37;58.69
15678;BME280;7939;50.814;6.368;2023-07-30T05:25:06;99479.28;;;21.36;58.59
15678;BME280;7939;50.814;6.368;2023-07-30T05:27:33;99479.22;;;21.37;58.64
15678;BME280;7939;50.814;6.368;2023-07-30T05:29:59;99478.34;;;21.37;58.60
15678;BME280;7939;50.814;6.368;2023-07-30T05:32:26;99473.16;;;21.37;58.54
15678;BME280;7939;50.814;6.368;2023-07-30T05:34:52;99469.72;;;21.36;58.78
15678;BME280;7939;50.814;6.368;2023-07-30T05:37:19;99478.44;;;21.35;58.79
15678;BME280;7939;50.814;6.368;2023-07-30T05:39:47;99477.53;;;21.36;58.77
15678;BME280;7939;50.814;6.368;2023-07-30T05:42:14;99472.41;;;21.35;58.80
15678;BME280;7939;50.814;6.368;2023-07-30T05:44:40;99476.69;;;21.36;58.62
15678;BME280;7939;50.814;6.368;2023-07-30T05:47:07;99479.38;;;21.34;58.31
15678;BME280;7939;50.814;6.368;2023-07-30T05:49:34;99468.13;;;21.34;58.47
15678;BME280;7939;50.814;6.368;2023-07-30T05:52:00;99465.53;;;21.34;58.36
15678;BME280;7939;50.814;6.368;2023-07-30T05:54:27;99468.22;;;21.32;58.45
15678;BME280;7939;50.814;6.368;2023-07-30T05:56:55;99478.59;;;21.32;58.24
15678;BME280;7939;50.814;6.368;2023-07-30T05:59:22;99482.97;;;21.32;58.27
15678;BME280;7939;50.814;6.368;2023-07-30T06:01:48;99480.38;;;21.32;58.20
15678;BME280;7939;50.814;6.368;2023-07-30T06:04:15;99476.00;;;21.32;58.40
15678;BME280;7939;50.814;6.368;2023-07-30T06:06:42;99473.47;;;21.31;58.36
15678;BME280;7939;50.814;6.368;2023-07-30T06:09:08;99478.66;;;21.31;58.33
15678;BME280;7939;50.814;6.368;2023-07-30T06:11:36;99484.78;;;21.30;58.17
15678;BME280;7939;50.814;6.368;2023-07-30T06:14:04;99497.78;;;21.30;58.28
15678;BME280;7939;50.814;6.368;2023-07-30T06:16:31;99494.25;;;21.31;58.16
15678;BME280;7939;50.814;6.368;2023-07-30T06:18:57;99499.41;;;21.32;57.90
15678;BME280;7939;50.814;6.368;2023-07-30T06:21:24;99509.81;;;21.32;58.06
15678;BME280;7939;50.814;6.368;2023-07-30T06:23:51;99512.41;;;21.32;58.14
15678;BME280;7939;50.814;6.368;2023-07-30T06:26:18;99513.38;;;21.30;58.17
15678;BME280;7939;50.814;6.368;2023-07-30T06:28:44;99519.41;;;21.30;58.17
15678;BME280;7939;50.814;6.368;2023-07-30T06:31:12;99513.25;;;21.33;58.15
15678;BME280;7939;50.814;6.368;2023-07-30T06:33:39;99512.41;;;21.32;58.06
15678;BME280;7939;50.814;6.368;2023-07-30T06:36:05;99517.66;;;21.31;58.27
15678;BME280;7939;50.814;6.368;2023-07-30T06:38:32;99520.25;;;21.31;58.17
15678;BME280;7939;50.814;6.368;2023-07-30T06:40:58;99510.72;;;21.31;58.09
15678;BME280;7939;50.814;6.368;2023-07-30T06:43:25;99522.84;;;21.31;58.10
15678;BME280;7939;50.814;6.368;2023-07-30T06:45:53;99522.94;;;21.29;58.43
15678;BME280;7939;50.814;6.368;2023-07-30T06:48:21;99519.41;;;21.30;58.14
15678;BME280;7939;50.814;6.368;2023-07-30T06:50:48;99517.66;;;21.31;58.26
15678;BME280;7939;50.814;6.368;2023-07-30T06:53:15;99508.13;;;21.31;58.29
15678;BME280;7939;50.814;6.368;2023-07-30T06:55:41;99520.25;;;21.31;58.22
15678;BME280;7939;50.814;6.368;2023-07-30T06:58:08;99512.41;;;21.32;58.45
15678;BME280;7939;50.814;6.368;2023-07-30T07:00:34;99522.78;;;21.32;58.45
15678;BME280;7939;50.814;6.368;2023-07-30T07:03:01;99522.84;;;21.31;58.47
15678;BME280;7939;50.814;6.368;2023-07-30T07:05:29;99525.44;;;21.31;58.29
15678;BME280;7939;50.814;6.368;2023-07-30T07:07:56;99527.16;;;21.32;58.34
15678;BME280;7939;50.814;6.368;2023-07-30T07:10:22;99529.81;;;21.30;58.28
15678;BME280;7939;50.814;6.368;2023-07-30T07:12:49;99535.84;;;21.31;58.37
15678;BME280;7939;50.814;6.368;2023-07-30T07:15:16;99529.81;;;21.30;58.39
15678;BME280;7939;50.814;6.368;2023-07-30T07:17:43;99535.00;;;21.30;58.30
15678;BME280;7939;50.814;6.368;2023-07-30T07:20:10;99535.00;;;21.30;57.96
15678;BME280;7939;50.814;6.368;2023-07-30T07:22:38;99538.53;;;21.29;58.27
15678;BME280;7939;50.814;6.368;2023-07-30T07:25:05;99542.00;;;21.28;58.22
15678;BME280;7939;50.814;6.368;2023-07-30T07:27:31;99548.09;;;21.28;58.25
15678;BME280;7939;50.814;6.368;2023-07-30T07:29:58;99541.13;;;21.29;58.12
15678;BME280;7939;50.814;6.368;2023-07-30T07:32:25;99549.97;;;21.25;58.28
15678;BME280;7939;50.814;6.368;2023-07-30T07:34:52;99546.38;;;21.27;58.19
15678;BME280;7939;50.814;6.368;2023-07-30T07:37:18;99554.13;;;21.29;58.41
15678;BME280;7939;50.814;6.368;2023-07-30T07:39:47;99545.53;;;21.27;58.20
15678;BME280;7939;50.814;6.368;2023-07-30T07:42:13;99549.81;;;21.28;58.38
15678;BME280;7939;50.814;6.368;2023-07-30T07:44:40;99553.28;;;21.28;58.43
15678;BME280;7939;50.814;6.368;2023-07-30T07:47:09;99552.41;;;21.28;58.49
15678;BME280;7939;50.814;6.368;2023-07-30T07:49:36;99547.13;;;21.31;58.13
15678;BME280;7939;50.814;6.368;2023-07-30T07:52:03;99544.69;;;21.26;58.25
15678;BME280;7939;50.814;6.368;2023-07-30T07:54:29;99551.53;;;21.29;58.31
15678;BME280;7939;50.814;6.368;2023-07-30T07:56:58;99556.72;;;21.29;58.46
15678;BME280;7939;50.814;6.368;2023-07-30T07:59:25;99551.44;;;21.31;58.49
15678;BME280;7939;50.814;6.368;2023-07-30T08:01:53;99550.59;;;21.30;58.45
15678;BME280;7939;50.814;6.368;2023-07-30T08:04:20;99550.59;;;21.30;58.11
15678;BME280;7939;50.814;6.368;2023-07-30T08:06:47;99559.25;;;21.31;58.43
15678;BME280;7939;50.814;6.368;2023-07-30T08:09:14;99564.31;;;21.34;58.16
15678;BME280;7939;50.814;6.368;2023-07-30T08:11:40;99547.16;;;21.30;57.93
15678;BME280;7939;50.814;6.368;2023-07-30T08:14:08;99553.16;;;21.32;58.17
15678;BME280;7939;50.814;6.368;2023-07-30T08:16:35;99557.50;;;21.31;58.21
15678;BME280;7939;50.814;6.368;2023-07-30T08:19:02;99551.44;;;21.31;58.11
15678;BME280;7939;50.814;6.368;2023-07-30T08:21:28;99551.38;;;21.32;58.16
15678;BME280;7939;50.814;6.368;2023-07-30T08:23:55;99557.34;;;21.34;58.08
15678;BME280;7939;50.814;6.368;2023-07-30T08:26:22;99560.78;;;21.35;58.17
15678;BME280;7939;50.814;6.368;2023-07-30T08:28:49;99559.03;;;21.35;57.85
15678;BME280;7939;50.814;6.368;2023-07-30T08:31:17;99560.72;;;21.36;58.05
15678;BME280;7939;50.814;6.368;2023-07-30T08:33:43;99554.66;;;21.36;58.11
15678;BME280;7939;50.814;6.368;2023-07-30T08:36:10;99561.50;;;21.38;58.05
15678;BME280;7939;50.814;6.368;2023-07-30T08:38:36;99550.19;;;21.39;58.01
15678;BME280;7939;50.814;6.368;2023-07-30T08:41:03;99557.97;;;21.39;57.84
15678;BME280;7939;50.814;6.368;2023-07-30T08:43:30;99554.38;;;21.42;57.88
15678;BME280;7939;50.814;6.368;2023-07-30T08:45:57;99556.22;;;21.40;57.68
15678;BME280;7939;50.814;6.368;2023-07-30T08:48:26;99561.41;;;21.40;57.87
15678;BME280;7939;50.814;6.368;2023-07-30T08:50:56;99569.97;;;21.42;57.86
15678;BME280;7939;50.814;6.368;2023-07-30T08:53:24;99565.69;;;21.41;57.71
15678;BME280;7939;50.814;6.368;2023-07-30T08:55:51;99569.13;;;21.41;57.68
15678;BME280;7939;50.814;6.368;2023-07-30T08:58:19;99560.50;;;21.41;57.26
15678;BME280;7939;50.814;6.368;2023-07-30T09:00:46;99568.22;;;21.42;57.78
15678;BME280;7939;50.814;6.368;2023-07-30T09:03:16;99567.38;;;21.42;57.72
15678;BME280;7939;50.814;6.368;2023-07-30T09:05:45;99575.97;;;21.44;57.23
15678;BME280;7939;50.814;6.368;2023-07-30T09:08:12;99587.19;;;21.44;57.37
15678;BME280;7939;50.814;6.368;2023-07-30T09:10:39;99577.63;;;21.45;57.59
15678;BME280;7939;50.814;6.368;2023-07-30T09:13:05;99581.91;;;21.46;57.19
15678;BME280;7939;50.814;6.368;2023-07-30T09:15:34;99577.56;;;21.46;56.92
15678;BME280;7939;50.814;6.368;2023-07-30T09:18:03;99574.88;;;21.48;56.97
15678;BME280;7939;50.814;6.368;2023-07-30T09:20:36;99583.59;;;21.47;56.96
15678;BME280;7939;50.814;6.368;2023-07-30T09:23:05;99568.75;;;21.49;56.95
15678;BME280;7939;50.814;6.368;2023-07-30T09:25:32;99582.47;;;21.52;56.81
15678;BME280;7939;50.814;6.368;2023-07-30T09:27:59;99559.78;;;21.56;57.45
15678;BME280;7939;50.814;6.368;2023-07-30T09:30:26;99563.13;;;21.58;57.78
15678;BME280;7939;50.814;6.368;2023-07-30T09:32:54;99563.97;;;21.59;57.27
15678;BME280;7939;50.814;6.368;2023-07-30T09:35:21;99563.88;;;21.60;57.42
15678;BME280;7939;50.814;6.368;2023-07-30T09:37:50;99570.00;;;21.59;56.55
15678;BME280;7939;50.814;6.368;2023-07-30T09:40:31;99579.34;;;21.63;56.87
15678;BME280;7939;50.814;6.368;2023-07-30T09:42:58;99582.84;;;21.62;56.29
15678;BME280;7939;50.814;6.368;2023-07-30T09:45:25;99589.75;;;21.63;57.01
15678;BME280;7939;50.814;6.368;2023-07-30T09:47:54;99588.00;;;21.64;56.59
15678;BME280;7939;50.814;6.368;2023-07-30T09:50:21;99580.13;;;21.65;56.22
15678;BME280;7939;50.814;6.368;2023-07-30T09:52:49;99574.91;;;21.65;56.18
15678;BME280;7939;50.814;6.368;2023-07-30T09:55:15;99577.50;;;21.65;56.41
15678;BME280;7939;50.814;6.368;2023-07-30T09:57:45;99572.41;;;21.64;56.31
15678;BME280;7939;50.814;6.368;2023-07-30T10:00:12;99579.28;;;21.65;55.64
15678;BME280;7939;50.814;6.368;2023-07-30T10:02:41;99582.56;;;21.68;56.00
15678;BME280;7939;50.814;6.368;2023-07-30T10:05:10;99575.44;;;21.72;55.64
15678;BME280;7939;50.814;6.368;2023-07-30T10:07:40;99571.72;;;21.77;55.24
15678;BME280;7939;50.814;6.368;2023-07-30T10:10:09;99569.19;;;21.76;55.01
15678;BME280;7939;50.814;6.368;2023-07-30T10:12:38;99579.13;;;21.85;54.46
15678;BME280;7939;50.814;6.368;2023-07-30T10:15:08;99578.22;;;21.86;53.66
15678;BME280;7939;50.814;6.368;2023-07-30T10:17:34;99584.13;;;21.90;53.69
15678;BME280;7939;50.814;6.368;2023-07-30T10:20:20;99595.97;;;21.95;53.83
15678;BME280;7939;50.814;6.368;2023-07-30T10:22:51;99581.88;;;21.99;53.54
15678;BME280;7939;50.814;6.368;2023-07-30T10:25:20;99579.06;;;22.04;53.14
15678;BME280;7939;50.814;6.368;2023-07-30T10:27:50;99590.94;;;22.10;53.38
15678;BME280;7939;50.814;6.368;2023-07-30T10:30:19;99591.66;;;22.13;52.95
15678;BME280;7939;50.814;6.368;2023-07-30T10:32:58;99582.00;;;22.15;53.03
15678;BME280;7939;50.814;6.368;2023-07-30T10:35:39;99597.44;;;22.18;52.92
15678;BME280;7939;50.814;6.368;2023-07-30T10:38:13;99600.66;;;22.23;52.94
15678;BME280;7939;50.814;6.368;2023-07-30T10:40:40;99589.28;;;22.26;53.56
15678;BME280;7939;50.814;6.368;2023-07-30T10:43:14;99589.94;;;22.29;52.90
15678;BME280;7939;50.814;6.368;2023-07-30T10:45:49;99586.09;;;22.37;52.64
15678;BME280;7939;50.814;6.368;2023-07-30T10:48:16;99576.28;;;22.42;53.11
15678;BME280;7939;50.814;6.368;2023-07-30T10:50:43;99589.91;;;22.47;52.98
15678;BME280;7939;50.814;6.368;2023-07-30T10:53:14;99601.91;;;22.49;52.90
15678;BME280;7939;50.814;6.368;2023-07-30T10:55:41;99588.66;;;22.54;52.84
15678;BME280;7939;50.814;6.368;2023-07-30T10:58:07;99586.81;;;22.56;52.72
15678;BME280;7939;50.814;6.368;2023-07-30T11:00:34;99587.59;;;22.58;53.08
15678;BME280;7939;50.814;6.368;2023-07-30T11:03:02;99583.84;;;22.64;52.73
15678;BME280;7939;50.814;6.368;2023-07-30T11:05:29;99602.81;;;22.66;52.81
15678;BME280;7939;50.814;6.368;2023-07-30T11:07:56;99597.38;;;22.70;52.35
15678;BME280;7939;50.814;6.368;2023-07-30T11:10:23;99615.53;;;22.72;52.53
15678;BME280;7939;50.814;6.368;2023-07-30T11:12:49;99609.25;;;22.76;52.28
15678;BME280;7939;50.814;6.368;2023-07-30T11:15:17;99608.22;;;22.78;51.85
15678;BME280;7939;50.814;6.368;2023-07-30T11:17:43;99612.41;;;22.81;52.42
15678;BME280;7939;50.814;6.368;2023-07-30T11:20:23;99624.69;;;22.79;51.85
15678;BME280;7939;50.814;6.368;2023-07-30T11:22:52;99622.09;;;22.79;51.92
15678;BME280;7939;50.814;6.368;2023-07-30T11:25:19;99629.16;;;22.77;51.71
15678;BME280;7939;50.814;6.368;2023-07-30T11:27:46;99628.22;;;22.78;51.81
15678;BME280;7939;50.814;6.368;2023-07-30T11:30:12;99631.59;;;22.80;51.66
15678;BME280;7939;50.814;6.368;2023-07-30T11:32:39;99625.53;;;22.79;51.75
15678;BME280;7939;50.814;6.368;2023-07-30T11:35:08;99629.81;;;22.80;51.81
15678;BME280;7939;50.814;6.368;2023-07-30T11:37:37;99635.63;;;22.85;51.98
15678;BME280;7939;50.814;6.368;2023-07-30T11:40:07;99635.63;;;22.85;51.58
15678;BME280;7939;50.814;6.368;2023-07-30T11:45:18;99641.56;;;22.89;51.47
15678;BME280;7939;50.814;6.368;2023-07-30T11:47:46;99649.38;;;22.89;51.60
15678;BME280;7939;50.814;6.368;2023-07-30T11:50:13;99646.06;;;22.85;52.11
15678;BME280;7939;50.814;6.368;2023-07-30T11:52:52;99647.91;;;22.83;52.24
15678;BME280;7939;50.814;6.368;2023-07-30T11:55:20;99654.66;;;22.87;51.86
15678;BME280;7939;50.814;6.368;2023-07-30T11:57:47;99646.84;;;22.87;52.08
15678;BME280;7939;50.814;6.368;2023-07-30T12:00:14;99652.84;;;22.90;52.17
15678;BME280;7939;50.814;6.368;2023-07-30T12:02:41;99650.13;;;22.91;52.23
15678;BME280;7939;50.814;6.368;2023-07-30T12:05:10;99646.50;;;22.94;52.66
15678;BME280;7939;50.814;6.368;2023-07-30T12:07:39;99654.19;;;22.97;52.46
15678;BME280;7939;50.814;6.368;2023-07-30T12:10:09;99649.72;;;22.99;52.30
15678;BME280;7939;50.814;6.368;2023-07-30T12:12:35;99654.84;;;23.00;52.28
15678;BME280;7939;50.814;6.368;2023-07-30T12:15:10;99661.91;;;22.98;52.19
15678;BME280;7939;50.814;6.368;2023-07-30T12:17:36;99658.47;;;22.98;52.03
15678;BME280;7939;50.814;6.368;2023-07-30T12:20:04;99671.59;;;22.96;52.15
15678;BME280;7939;50.814;6.368;2023-07-30T12:22:32;99670.81;;;22.94;52.49
15678;BME280;7939;50.814;6.368;2023-07-30T12:24:59;99671.75;;;22.93;51.88
15678;BME280;7939;50.814;6.368;2023-07-30T12:27:27;99663.88;;;22.95;52.24
15678;BME280;7939;50.814;6.368;2023-07-30T12:29:54;99669.91;;;22.95;52.01
15678;BME280;7939;50.814;6.368;2023-07-30T12:32:21;99664.75;;;22.94;51.44
15678;BME280;7939;50.814;6.368;2023-07-30T12:34:47;99659.50;;;22.95;51.21
15678;BME280;7939;50.814;6.368;2023-07-30T12:37:14;99663.59;;;22.99;51.76
15678;BME280;7939;50.814;6.368;2023-07-30T12:39:40;99672.25;;;23.00;51.93
15678;BME280;7939;50.814;6.368;2023-07-30T12:42:07;99669.91;;;22.95;51.46
15678;BME280;7939;50.814;6.368;2023-07-30T12:44:35;99668.81;;;22.99;51.45
15678;BME280;7939;50.814;6.368;2023-07-30T12:47:01;99675.88;;;22.97;51.42
15678;BME280;7939;50.814;6.368;2023-07-30T12:49:28;99675.03;;;22.97;51.15
15678;BME280;7939;50.814;6.368;2023-07-30T12:51:55;99674.88;;;23.00;50.80
15678;BME280;7939;50.814;6.368;2023-07-30T12:54:21;99676.72;;;22.98;51.32
15678;BME280;7939;50.814;6.368;2023-07-30T12:56:48;99674.19;;;22.96;50.96
15678;BME280;7939;50.814;6.368;2023-07-30T12:59:15;99680.34;;;22.95;50.21
15678;BME280;7939;50.814;6.368;2023-07-30T13:01:43;99677.75;;;22.95;50.97
15678;BME280;7939;50.814;6.368;2023-07-30T13:04:09;99679.50;;;22.95;51.25
15678;BME280;7939;50.814;6.368;2023-07-30T13:06:36;99677.66;;;22.97;51.59
15678;BME280;7939;50.814;6.368;2023-07-30T13:09:02;99667.22;;;22.97;50.87
15678;BME280;7939;50.814;6.368;2023-07-30T13:11:29;99671.69;;;22.95;51.21
15678;BME280;7939;50.814;6.368;2023-07-30T13:13:56;99662.00;;;22.97;51.47